Hauptseite
METAR-TAF:

METAR-TAF

Flughäfen :

Treviso, Italien

Militärflugplatz Istrana

Breite: 45-41N, Länge: 012-06E, Höhe: 45 m

Beobachtung

Neuester Wetterbericht von vor 1 Stunde und 19 Minuten, um 21:55 UTC
Wind 2 kt aus Nord/Nordost
Temperatur 15°C
Luftfeuchtigkeit 82%
Luftdruck 1019 hPa
Sichtweite 10 km oder mehr
keine Wolken unter 1500 m und keine Kumulonimbus oder Gewitterwolken

METAR: LIPS 212155Z 02002KT CAVOK 15/12 Q1019 RMK SKC VIS MIN 9999 WIND THR26 00000KT WIND THR08 00000KT BLU

Zeit: 01:14 (23:14 UTC)

Prognose

Neuester Wetterbericht von vor 3 Stunden und 14 Minuten, um 20:00 UTC
Gültige Prognose vom 21 um 21 UTC bis 22 um 06 UTC
Wind 5 kt aus unterschiedlichen Richtungen
Sichtweite 10 km oder mehr
keine Wolken unter 1500 m und keine Kumulonimbus oder Gewitterwolken

TAF: LIPS 212000Z 2121/2206 VRB05KT CAVOK

Wetterbeobachtungen und Prognosen von mehr als 4000 Flughäfen (METAR und TAF Bericht).

Die verfügbaren Stationen werden durch gelbe und rote Markierungen auf der Karte dargestellt.

Führen Sie die Maus auf sie, um den Namen der Station zu sehen.

Darauf klicken, um die Beobachtung von Wetterbeobachtungen und Prognosen zu sehen.

Um die Karte zu ändern : klicken Sie auf den grünen Tasten mit einem schwarzen Kreuz Zum Vergrößern, auf den grünen Button mit einem Gedankenstrich zu verkleinern, oder auf die grünen Pfeile für benachbarte Karten.


METAR-TAF: